sensor_id;sensor_type;location;lat;lon;timestamp;temperature;humidity
61912;DHT22;49973;52.084;5.412;2023-03-04T00:01:05;6.50;99.90
61912;DHT22;49973;52.084;5.412;2023-03-04T00:03:34;6.50;99.90
61912;DHT22;49973;52.084;5.412;2023-03-04T00:06:03;6.50;99.90
61912;DHT22;49973;52.084;5.412;2023-03-04T00:08:32;6.40;99.90
61912;DHT22;49973;52.084;5.412;2023-03-04T00:11:02;6.40;99.90
61912;DHT22;49973;52.084;5.412;2023-03-04T00:13:31;6.40;99.90
61912;DHT22;49973;52.084;5.412;2023-03-04T00:16:00;6.40;99.90
61912;DHT22;49973;52.084;5.412;2023-03-04T00:18:28;6.40;99.90
61912;DHT22;49973;52.084;5.412;2023-03-04T00:20:57;6.50;99.90
61912;DHT22;49973;52.084;5.412;2023-03-04T00:23:25;6.40;99.90
61912;DHT22;49973;52.084;5.412;2023-03-04T00:25:54;6.40;99.90
61912;DHT22;49973;52.084;5.412;2023-03-04T00:28:24;6.60;99.90
61912;DHT22;49973;52.084;5.412;2023-03-04T00:30:52;6.40;99.90
61912;DHT22;49973;52.084;5.412;2023-03-04T00:33:21;6.40;99.90
61912;DHT22;49973;52.084;5.412;2023-03-04T00:35:50;6.40;99.90
61912;DHT22;49973;52.084;5.412;2023-03-04T00:38:18;6.40;99.90
61912;DHT22;49973;52.084;5.412;2023-03-04T00:40:47;6.40;99.90
61912;DHT22;49973;52.084;5.412;2023-03-04T00:43:15;6.40;99.90
61912;DHT22;49973;52.084;5.412;2023-03-04T00:45:46;6.40;99.90
61912;DHT22;49973;52.084;5.412;2023-03-04T00:48:14;6.40;99.90
61912;DHT22;49973;52.084;5.412;2023-03-04T00:50:43;6.40;99.90
61912;DHT22;49973;52.084;5.412;2023-03-04T00:53:12;6.40;99.90
61912;DHT22;49973;52.084;5.412;2023-03-04T00:55:40;6.60;99.90
61912;DHT22;49973;52.084;5.412;2023-03-04T00:58:09;6.50;99.90
61912;DHT22;49973;52.084;5.412;2023-03-04T01:00:38;6.40;99.90
61912;DHT22;49973;52.084;5.412;2023-03-04T01:03:07;6.40;99.90
61912;DHT22;49973;52.084;5.412;2023-03-04T01:05:36;6.40;99.90
61912;DHT22;49973;52.084;5.412;2023-03-04T01:08:05;6.40;99.90
61912;DHT22;49973;52.084;5.412;2023-03-04T01:10:34;6.40;99.90
61912;DHT22;49973;52.084;5.412;2023-03-04T01:13:02;6.40;99.90
61912;DHT22;49973;52.084;5.412;2023-03-04T01:15:31;6.40;99.90
61912;DHT22;49973;52.084;5.412;2023-03-04T01:17:59;6.40;99.90
61912;DHT22;49973;52.084;5.412;2023-03-04T01:20:29;6.40;99.90
61912;DHT22;49973;52.084;5.412;2023-03-04T01:22:58;6.40;99.90
61912;DHT22;49973;52.084;5.412;2023-03-04T01:25:27;6.40;99.90
61912;DHT22;49973;52.084;5.412;2023-03-04T01:27:55;6.40;99.90
61912;DHT22;49973;52.084;5.412;2023-03-04T01:30:24;6.40;99.90
61912;DHT22;49973;52.084;5.412;2023-03-04T01:32:52;6.40;99.90
61912;DHT22;49973;52.084;5.412;2023-03-04T01:35:21;6.40;99.90
61912;DHT22;49973;52.084;5.412;2023-03-04T01:37:51;6.40;99.90
61912;DHT22;49973;52.084;5.412;2023-03-04T01:40:19;6.40;99.90
61912;DHT22;49973;52.084;5.412;2023-03-04T01:42:48;6.40;99.90
61912;DHT22;49973;52.084;5.412;2023-03-04T01:45:18;6.30;99.90
61912;DHT22;49973;52.084;5.412;2023-03-04T01:47:48;6.30;99.90
61912;DHT22;49973;52.084;5.412;2023-03-04T01:50:20;6.30;99.90
61912;DHT22;49973;52.084;5.412;2023-03-04T01:52:50;6.30;99.90
61912;DHT22;49973;52.084;5.412;2023-03-04T01:55:21;6.30;99.90
61912;DHT22;49973;52.084;5.412;2023-03-04T01:57:50;6.30;99.90
61912;DHT22;49973;52.084;5.412;2023-03-04T02:00:28;6.30;99.90
61912;DHT22;49973;52.084;5.412;2023-03-04T02:03:00;6.30;99.90
61912;DHT22;49973;52.084;5.412;2023-03-04T02:05:30;6.40;99.90
61912;DHT22;49973;52.084;5.412;2023-03-04T02:08:00;6.30;99.90
61912;DHT22;49973;52.084;5.412;2023-03-04T02:10:30;6.30;99.90
61912;DHT22;49973;52.084;5.412;2023-03-04T02:13:00;6.30;99.90
61912;DHT22;49973;52.084;5.412;2023-03-04T02:15:29;6.30;99.90
61912;DHT22;49973;52.084;5.412;2023-03-04T02:17:58;6.30;99.90
61912;DHT22;49973;52.084;5.412;2023-03-04T02:20:36;6.30;99.90
61912;DHT22;49973;52.084;5.412;2023-03-04T02:23:13;6.30;99.90
61912;DHT22;49973;52.084;5.412;2023-03-04T02:25:46;6.30;99.90
61912;DHT22;49973;52.084;5.412;2023-03-04T02:28:18;6.30;99.90
61912;DHT22;49973;52.084;5.412;2023-03-04T02:30:47;6.50;99.90
61912;DHT22;49973;52.084;5.412;2023-03-04T02:33:16;6.40;99.90
61912;DHT22;49973;52.084;5.412;2023-03-04T02:35:46;6.30;99.90
61912;DHT22;49973;52.084;5.412;2023-03-04T02:38:15;6.30;99.90
61912;DHT22;49973;52.084;5.412;2023-03-04T02:40:47;6.30;99.90
61912;DHT22;49973;52.084;5.412;2023-03-04T02:43:18;6.30;99.90
61912;DHT22;49973;52.084;5.412;2023-03-04T02:45:49;6.30;99.90
61912;DHT22;49973;52.084;5.412;2023-03-04T02:48:20;6.30;99.90
61912;DHT22;49973;52.084;5.412;2023-03-04T02:50:52;6.30;99.90
61912;DHT22;49973;52.084;5.412;2023-03-04T02:53:21;6.30;99.90
61912;DHT22;49973;52.084;5.412;2023-03-04T02:55:52;6.20;99.90
61912;DHT22;49973;52.084;5.412;2023-03-04T02:58:24;6.30;99.90
61912;DHT22;49973;52.084;5.412;2023-03-04T03:00:52;6.30;99.90
61912;DHT22;49973;52.084;5.412;2023-03-04T03:03:21;6.40;99.90
61912;DHT22;49973;52.084;5.412;2023-03-04T03:05:49;6.30;99.90
61912;DHT22;49973;52.084;5.412;2023-03-04T03:08:18;6.30;99.90
61912;DHT22;49973;52.084;5.412;2023-03-04T03:10:47;6.40;99.90
61912;DHT22;49973;52.084;5.412;2023-03-04T03:13:16;6.30;99.90
61912;DHT22;49973;52.084;5.412;2023-03-04T03:15:46;6.30;99.90
61912;DHT22;49973;52.084;5.412;2023-03-04T03:18:16;6.30;99.90
61912;DHT22;49973;52.084;5.412;2023-03-04T03:20:45;6.30;99.90
61912;DHT22;49973;52.084;5.412;2023-03-04T03:23:14;6.30;99.90
61912;DHT22;49973;52.084;5.412;2023-03-04T03:25:44;6.30;99.90
61912;DHT22;49973;52.084;5.412;2023-03-04T03:28:12;6.20;99.90
61912;DHT22;49973;52.084;5.412;2023-03-04T03:30:41;6.30;99.90
61912;DHT22;49973;52.084;5.412;2023-03-04T03:33:11;6.20;99.90
61912;DHT22;49973;52.084;5.412;2023-03-04T03:35:39;6.20;99.90
61912;DHT22;49973;52.084;5.412;2023-03-04T03:38:08;6.20;99.90
61912;DHT22;49973;52.084;5.412;2023-03-04T03:40:37;6.30;99.90
61912;DHT22;49973;52.084;5.412;2023-03-04T03:43:05;6.20;99.90
61912;DHT22;49973;52.084;5.412;2023-03-04T03:45:34;6.20;99.90
61912;DHT22;49973;52.084;5.412;2023-03-04T03:48:03;6.30;99.90
61912;DHT22;49973;52.084;5.412;2023-03-04T03:50:33;6.20;99.90
61912;DHT22;49973;52.084;5.412;2023-03-04T03:53:02;6.20;99.90
61912;DHT22;49973;52.084;5.412;2023-03-04T03:55:31;6.20;99.90
61912;DHT22;49973;52.084;5.412;2023-03-04T03:58:00;6.20;99.90
61912;DHT22;49973;52.084;5.412;2023-03-04T04:00:28;6.30;99.90
61912;DHT22;49973;52.084;5.412;2023-03-04T04:02:59;6.40;99.90
61912;DHT22;49973;52.084;5.412;2023-03-04T04:05:28;6.30;99.90
61912;DHT22;49973;52.084;5.412;2023-03-04T04:07:58;6.20;99.90
61912;DHT22;49973;52.084;5.412;2023-03-04T04:10:26;6.20;99.90
61912;DHT22;49973;52.084;5.412;2023-03-04T04:12:55;6.20;99.90
61912;DHT22;49973;52.084;5.412;2023-03-04T04:15:23;6.20;99.90
61912;DHT22;49973;52.084;5.412;2023-03-04T04:17:52;6.20;99.90
61912;DHT22;49973;52.084;5.412;2023-03-04T04:20:22;6.20;99.90
61912;DHT22;49973;52.084;5.412;2023-03-04T04:22:52;6.10;99.90
61912;DHT22;49973;52.084;5.412;2023-03-04T04:25:22;6.10;99.90
61912;DHT22;49973;52.084;5.412;2023-03-04T04:27:51;6.10;99.90
61912;DHT22;49973;52.084;5.412;2023-03-04T04:30:20;6.10;99.90
61912;DHT22;49973;52.084;5.412;2023-03-04T04:32:48;6.10;99.90
61912;DHT22;49973;52.084;5.412;2023-03-04T04:35:17;6.10;99.90
61912;DHT22;49973;52.084;5.412;2023-03-04T04:37:46;6.10;99.90
61912;DHT22;49973;52.084;5.412;2023-03-04T04:40:15;6.10;99.90
61912;DHT22;49973;52.084;5.412;2023-03-04T04:42:45;6.10;99.90
61912;DHT22;49973;52.084;5.412;2023-03-04T04:45:14;6.10;99.90
61912;DHT22;49973;52.084;5.412;2023-03-04T04:47:42;6.10;99.90
61912;DHT22;49973;52.084;5.412;2023-03-04T04:50:11;6.20;99.90
61912;DHT22;49973;52.084;5.412;2023-03-04T04:52:40;6.10;99.90
61912;DHT22;49973;52.084;5.412;2023-03-04T04:55:09;6.10;99.90
61912;DHT22;49973;52.084;5.412;2023-03-04T04:57:38;6.10;99.90
61912;DHT22;49973;52.084;5.412;2023-03-04T05:00:09;6.10;99.90
61912;DHT22;49973;52.084;5.412;2023-03-04T05:02:39;6.10;99.90
61912;DHT22;49973;52.084;5.412;2023-03-04T05:05:08;6.10;99.90
61912;DHT22;49973;52.084;5.412;2023-03-04T05:07:36;6.10;99.90
61912;DHT22;49973;52.084;5.412;2023-03-04T05:10:06;6.10;99.90
61912;DHT22;49973;52.084;5.412;2023-03-04T05:12:34;6.10;99.90
61912;DHT22;49973;52.084;5.412;2023-03-04T05:15:03;6.10;99.90
61912;DHT22;49973;52.084;5.412;2023-03-04T05:17:34;6.10;99.90
61912;DHT22;49973;52.084;5.412;2023-03-04T05:20:03;6.10;99.90
61912;DHT22;49973;52.084;5.412;2023-03-04T05:22:33;6.10;99.90
61912;DHT22;49973;52.084;5.412;2023-03-04T05:25:02;6.10;99.90
61912;DHT22;49973;52.084;5.412;2023-03-04T05:27:30;6.10;99.90
61912;DHT22;49973;52.084;5.412;2023-03-04T05:29:59;6.10;99.90
61912;DHT22;49973;52.084;5.412;2023-03-04T05:32:27;6.10;99.90
61912;DHT22;49973;52.084;5.412;2023-03-04T05:34:57;6.10;99.90
61912;DHT22;49973;52.084;5.412;2023-03-04T05:37:26;6.10;99.90
61912;DHT22;49973;52.084;5.412;2023-03-04T05:39:55;6.10;99.90
61912;DHT22;49973;52.084;5.412;2023-03-04T05:42:23;6.10;99.90
61912;DHT22;49973;52.084;5.412;2023-03-04T05:44:52;6.10;99.90
61912;DHT22;49973;52.084;5.412;2023-03-04T05:47:20;6.10;99.90
61912;DHT22;49973;52.084;5.412;2023-03-04T05:49:49;6.10;99.90
61912;DHT22;49973;52.084;5.412;2023-03-04T05:52:19;6.10;99.90
61912;DHT22;49973;52.084;5.412;2023-03-04T05:54:48;6.10;99.90
61912;DHT22;49973;52.084;5.412;2023-03-04T05:57:16;6.10;99.90
61912;DHT22;49973;52.084;5.412;2023-03-04T05:59:45;6.10;99.90
61912;DHT22;49973;52.084;5.412;2023-03-04T06:02:13;6.10;99.90
61912;DHT22;49973;52.084;5.412;2023-03-04T06:04:42;6.10;99.90
61912;DHT22;49973;52.084;5.412;2023-03-04T06:07:11;6.00;99.90
61912;DHT22;49973;52.084;5.412;2023-03-04T06:09:40;6.00;99.90
61912;DHT22;49973;52.084;5.412;2023-03-04T06:12:11;6.00;99.90
61912;DHT22;49973;52.084;5.412;2023-03-04T06:14:40;6.10;99.90
61912;DHT22;49973;52.084;5.412;2023-03-04T06:17:08;6.00;99.90
61912;DHT22;49973;52.084;5.412;2023-03-04T06:19:37;6.00;99.90
61912;DHT22;49973;52.084;5.412;2023-03-04T06:22:08;6.00;99.90
61912;DHT22;49973;52.084;5.412;2023-03-04T06:24:37;6.00;99.90
61912;DHT22;49973;52.084;5.412;2023-03-04T06:27:07;6.00;99.90
61912;DHT22;49973;52.084;5.412;2023-03-04T06:29:36;6.00;99.90
61912;DHT22;49973;52.084;5.412;2023-03-04T06:32:04;6.20;99.90
61912;DHT22;49973;52.084;5.412;2023-03-04T06:34:33;6.00;99.90
61912;DHT22;49973;52.084;5.412;2023-03-04T06:37:02;6.10;99.90
61912;DHT22;49973;52.084;5.412;2023-03-04T06:39:31;6.00;99.90
61912;DHT22;49973;52.084;5.412;2023-03-04T06:41:59;6.00;99.90
61912;DHT22;49973;52.084;5.412;2023-03-04T06:44:30;6.00;99.90
61912;DHT22;49973;52.084;5.412;2023-03-04T06:46:59;6.00;99.90
61912;DHT22;49973;52.084;5.412;2023-03-04T06:49:27;6.00;99.90
61912;DHT22;49973;52.084;5.412;2023-03-04T06:51:56;6.00;99.90
61912;DHT22;49973;52.084;5.412;2023-03-04T06:54:24;6.00;99.90
61912;DHT22;49973;52.084;5.412;2023-03-04T06:56:53;6.00;99.90
61912;DHT22;49973;52.084;5.412;2023-03-04T06:59:21;6.00;99.90
61912;DHT22;49973;52.084;5.412;2023-03-04T07:01:51;6.00;99.90
61912;DHT22;49973;52.084;5.412;2023-03-04T07:04:20;6.10;99.90
61912;DHT22;49973;52.084;5.412;2023-03-04T07:06:50;6.00;99.90
61912;DHT22;49973;52.084;5.412;2023-03-04T07:09:18;6.00;99.90
61912;DHT22;49973;52.084;5.412;2023-03-04T07:11:47;6.10;99.90
61912;DHT22;49973;52.084;5.412;2023-03-04T07:14:15;6.10;99.90
61912;DHT22;49973;52.084;5.412;2023-03-04T07:16:44;6.10;99.90
61912;DHT22;49973;52.084;5.412;2023-03-04T07:19:14;6.20;99.90
61912;DHT22;49973;52.084;5.412;2023-03-04T07:21:42;6.20;99.90
61912;DHT22;49973;52.084;5.412;2023-03-04T07:24:11;6.30;99.90
61912;DHT22;49973;52.084;5.412;2023-03-04T07:26:40;6.30;99.90
61912;DHT22;49973;52.084;5.412;2023-03-04T07:29:09;6.30;99.90
61912;DHT22;49973;52.084;5.412;2023-03-04T07:31:37;6.30;99.90
61912;DHT22;49973;52.084;5.412;2023-03-04T07:34:09;6.30;99.90
61912;DHT22;49973;52.084;5.412;2023-03-04T07:36:41;6.50;99.90
61912;DHT22;49973;52.084;5.412;2023-03-04T07:39:10;6.40;99.90
61912;DHT22;49973;52.084;5.412;2023-03-04T07:41:39;6.50;99.90
61912;DHT22;49973;52.084;5.412;2023-03-04T07:44:10;6.60;99.90
61912;DHT22;49973;52.084;5.412;2023-03-04T07:46:39;6.80;99.90
61912;DHT22;49973;52.084;5.412;2023-03-04T07:49:10;6.90;99.90
61912;DHT22;49973;52.084;5.412;2023-03-04T07:51:41;7.00;99.90
61912;DHT22;49973;52.084;5.412;2023-03-04T07:54:09;7.10;99.90
61912;DHT22;49973;52.084;5.412;2023-03-04T07:56:38;7.10;99.90
61912;DHT22;49973;52.084;5.412;2023-03-04T07:59:07;7.20;99.90
61912;DHT22;49973;52.084;5.412;2023-03-04T08:01:36;7.20;99.90
61912;DHT22;49973;52.084;5.412;2023-03-04T08:04:06;7.20;99.90
61912;DHT22;49973;52.084;5.412;2023-03-04T08:06:35;7.30;99.90
61912;DHT22;49973;52.084;5.412;2023-03-04T08:09:06;7.40;99.90
61912;DHT22;49973;52.084;5.412;2023-03-04T08:11:36;7.50;99.90
61912;DHT22;49973;52.084;5.412;2023-03-04T08:14:05;7.60;99.90
61912;DHT22;49973;52.084;5.412;2023-03-04T08:16:35;7.70;99.90
61912;DHT22;49973;52.084;5.412;2023-03-04T08:19:06;7.70;99.90
61912;DHT22;49973;52.084;5.412;2023-03-04T08:21:35;7.80;99.90
61912;DHT22;49973;52.084;5.412;2023-03-04T08:24:09;7.90;99.90
61912;DHT22;49973;52.084;5.412;2023-03-04T08:26:40;8.00;99.90
61912;DHT22;49973;52.084;5.412;2023-03-04T08:29:11;8.00;99.90
61912;DHT22;49973;52.084;5.412;2023-03-04T08:31:40;7.90;99.90
61912;DHT22;49973;52.084;5.412;2023-03-04T08:34:15;7.80;99.90
61912;DHT22;49973;52.084;5.412;2023-03-04T08:36:44;7.70;99.90
61912;DHT22;49973;52.084;5.412;2023-03-04T08:39:15;7.70;99.90
61912;DHT22;49973;52.084;5.412;2023-03-04T08:41:45;7.60;99.90
61912;DHT22;49973;52.084;5.412;2023-03-04T08:44:14;7.70;99.90
61912;DHT22;49973;52.084;5.412;2023-03-04T08:46:43;7.70;99.90
61912;DHT22;49973;52.084;5.412;2023-03-04T08:49:12;7.80;99.90
61912;DHT22;49973;52.084;5.412;2023-03-04T08:51:41;7.90;99.90
61912;DHT22;49973;52.084;5.412;2023-03-04T08:54:11;8.00;99.90
61912;DHT22;49973;52.084;5.412;2023-03-04T08:56:42;8.10;99.90
61912;DHT22;49973;52.084;5.412;2023-03-04T08:59:10;8.20;99.90
61912;DHT22;49973;52.084;5.412;2023-03-04T09:01:39;8.30;99.90
61912;DHT22;49973;52.084;5.412;2023-03-04T09:04:08;8.20;99.90
61912;DHT22;49973;52.084;5.412;2023-03-04T09:06:36;8.30;99.90
61912;DHT22;49973;52.084;5.412;2023-03-04T09:09:05;8.40;99.90
61912;DHT22;49973;52.084;5.412;2023-03-04T09:11:34;8.30;99.90
61912;DHT22;49973;52.084;5.412;2023-03-04T09:14:04;8.30;99.90
61912;DHT22;49973;52.084;5.412;2023-03-04T09:16:33;8.20;99.90
61912;DHT22;49973;52.084;5.412;2023-03-04T09:19:01;8.20;99.90
61912;DHT22;49973;52.084;5.412;2023-03-04T09:21:30;8.20;99.90
61912;DHT22;49973;52.084;5.412;2023-03-04T09:23:58;8.30;99.90
61912;DHT22;49973;52.084;5.412;2023-03-04T09:26:28;8.40;99.90
61912;DHT22;49973;52.084;5.412;2023-03-04T09:28:58;8.60;99.90
61912;DHT22;49973;52.084;5.412;2023-03-04T09:31:28;8.70;99.90
61912;DHT22;49973;52.084;5.412;2023-03-04T09:33:58;8.80;99.90
61912;DHT22;49973;52.084;5.412;2023-03-04T09:36:27;8.80;99.90
61912;DHT22;49973;52.084;5.412;2023-03-04T09:38:58;8.90;99.90
61912;DHT22;49973;52.084;5.412;2023-03-04T09:41:35;8.90;99.90
61912;DHT22;49973;52.084;5.412;2023-03-04T09:44:11;8.90;99.90
61912;DHT22;49973;52.084;5.412;2023-03-04T09:46:43;8.90;99.90
61912;DHT22;49973;52.084;5.412;2023-03-04T09:49:14;9.00;99.90
61912;DHT22;49973;52.084;5.412;2023-03-04T09:51:51;9.00;99.90
61912;DHT22;49973;52.084;5.412;2023-03-04T09:57:26;9.20;99.90
61912;DHT22;49973;52.084;5.412;2023-03-04T10:00:04;9.20;99.90
61912;DHT22;49973;52.084;5.412;2023-03-04T10:03:03;9.30;99.90
61912;DHT22;49973;52.084;5.412;2023-03-04T10:05:34;9.30;99.90
61912;DHT22;49973;52.084;5.412;2023-03-04T10:11:13;9.40;99.90
61912;DHT22;49973;52.084;5.412;2023-03-04T10:13:57;9.50;99.90
61912;DHT22;49973;52.084;5.412;2023-03-04T10:16:31;9.70;99.90
61912;DHT22;49973;52.084;5.412;2023-03-04T10:19:18;9.80;99.90
61912;DHT22;49973;52.084;5.412;2023-03-04T10:21:50;9.90;99.90
61912;DHT22;49973;52.084;5.412;2023-03-04T10:24:20;9.90;99.90
61912;DHT22;49973;52.084;5.412;2023-03-04T10:26:53;9.90;99.90
61912;DHT22;49973;52.084;5.412;2023-03-04T10:29:23;9.90;99.90
61912;DHT22;49973;52.084;5.412;2023-03-04T10:31:52;9.90;99.90
61912;DHT22;49973;52.084;5.412;2023-03-04T10:34:24;9.80;99.90
61912;DHT22;49973;52.084;5.412;2023-03-04T10:36:58;9.80;99.90
61912;DHT22;49973;52.084;5.412;2023-03-04T10:39:28;9.80;99.90
61912;DHT22;49973;52.084;5.412;2023-03-04T10:42:00;9.80;99.90
61912;DHT22;49973;52.084;5.412;2023-03-04T10:44:30;9.80;99.90
61912;DHT22;49973;52.084;5.412;2023-03-04T10:47:00;9.80;99.90
61912;DHT22;49973;52.084;5.412;2023-03-04T10:49:30;9.90;99.90
61912;DHT22;49973;52.084;5.412;2023-03-04T10:52:11;9.90;99.90
61912;DHT22;49973;52.084;5.412;2023-03-04T10:54:46;10.00;99.90
61912;DHT22;49973;52.084;5.412;2023-03-04T10:57:17;10.10;99.90
61912;DHT22;49973;52.084;5.412;2023-03-04T10:59:47;10.10;99.90
61912;DHT22;49973;52.084;5.412;2023-03-04T11:02:25;10.20;99.90
61912;DHT22;49973;52.084;5.412;2023-03-04T11:05:04;10.20;99.90
61912;DHT22;49973;52.084;5.412;2023-03-04T11:07:38;10.20;99.90
61912;DHT22;49973;52.084;5.412;2023-03-04T11:10:23;10.20;99.90
61912;DHT22;49973;52.084;5.412;2023-03-04T11:12:55;10.20;99.90
61912;DHT22;49973;52.084;5.412;2023-03-04T11:15:29;10.20;99.90
61912;DHT22;49973;52.084;5.412;2023-03-04T11:18:01;10.30;99.90
61912;DHT22;49973;52.084;5.412;2023-03-04T11:20:33;10.20;99.90
61912;DHT22;49973;52.084;5.412;2023-03-04T11:23:10;10.10;99.90
61912;DHT22;49973;52.084;5.412;2023-03-04T11:25:42;10.00;99.90
61912;DHT22;49973;52.084;5.412;2023-03-04T11:28:14;9.70;99.90
61912;DHT22;49973;52.084;5.412;2023-03-04T11:30:48;9.60;99.90
61912;DHT22;49973;52.084;5.412;2023-03-04T11:33:23;9.50;99.90
61912;DHT22;49973;52.084;5.412;2023-03-04T11:36:07;9.40;99.90
61912;DHT22;49973;52.084;5.412;2023-03-04T11:38:43;9.40;99.90
61912;DHT22;49973;52.084;5.412;2023-03-04T11:41:16;9.40;99.90
61912;DHT22;49973;52.084;5.412;2023-03-04T11:43:46;9.30;99.90
61912;DHT22;49973;52.084;5.412;2023-03-04T11:46:39;9.10;99.90
61912;DHT22;49973;52.084;5.412;2023-03-04T11:49:28;8.80;99.90
61912;DHT22;49973;52.084;5.412;2023-03-04T11:52:06;8.60;99.90
61912;DHT22;49973;52.084;5.412;2023-03-04T11:54:43;8.50;99.90
61912;DHT22;49973;52.084;5.412;2023-03-04T11:57:22;8.50;99.90
61912;DHT22;49973;52.084;5.412;2023-03-04T12:00:03;8.50;99.90
61912;DHT22;49973;52.084;5.412;2023-03-04T12:02:45;8.60;99.90
61912;DHT22;49973;52.084;5.412;2023-03-04T12:05:25;8.70;99.90
61912;DHT22;49973;52.084;5.412;2023-03-04T12:08:23;8.80;99.90
61912;DHT22;49973;52.084;5.412;2023-03-04T12:11:00;8.90;99.90
61912;DHT22;49973;52.084;5.412;2023-03-04T12:13:49;9.10;99.90
61912;DHT22;49973;52.084;5.412;2023-03-04T12:16:29;9.40;99.90
61912;DHT22;49973;52.084;5.412;2023-03-04T12:19:09;9.60;99.90
61912;DHT22;49973;52.084;5.412;2023-03-04T12:22:03;9.80;99.90
61912;DHT22;49973;52.084;5.412;2023-03-04T12:24:55;9.80;99.90
61912;DHT22;49973;52.084;5.412;2023-03-04T12:27:34;9.80;99.90
61912;DHT22;49973;52.084;5.412;2023-03-04T12:30:15;9.70;99.90
61912;DHT22;49973;52.084;5.412;2023-03-04T12:32:52;9.40;99.90
61912;DHT22;49973;52.084;5.412;2023-03-04T12:35:30;9.10;99.90
61912;DHT22;49973;52.084;5.412;2023-03-04T12:38:19;8.90;99.90
61912;DHT22;49973;52.084;5.412;2023-03-04T12:40:57;8.80;99.90
61912;DHT22;49973;52.084;5.412;2023-03-04T12:43:34;8.80;99.90
61912;DHT22;49973;52.084;5.412;2023-03-04T12:46:16;8.80;99.90
61912;DHT22;49973;52.084;5.412;2023-03-04T12:48:58;9.00;99.90
61912;DHT22;49973;52.084;5.412;2023-03-04T12:51:33;9.10;99.90
61912;DHT22;49973;52.084;5.412;2023-03-04T12:54:15;9.20;99.90
61912;DHT22;49973;52.084;5.412;2023-03-04T12:56:52;9.50;99.90
61912;DHT22;49973;52.084;5.412;2023-03-04T12:59:23;9.70;99.90
61912;DHT22;49973;52.084;5.412;2023-03-04T13:02:01;9.90;99.90
61912;DHT22;49973;52.084;5.412;2023-03-04T13:04:40;10.00;99.90
61912;DHT22;49973;52.084;5.412;2023-03-04T13:07:17;10.10;99.90
61912;DHT22;49973;52.084;5.412;2023-03-04T13:09:54;10.10;99.90
61912;DHT22;49973;52.084;5.412;2023-03-04T13:12:26;10.10;99.90
61912;DHT22;49973;52.084;5.412;2023-03-04T13:15:15;10.10;99.90
61912;DHT22;49973;52.084;5.412;2023-03-04T13:17:47;10.00;99.90
61912;DHT22;49973;52.084;5.412;2023-03-04T13:20:23;9.90;99.90
61912;DHT22;49973;52.084;5.412;2023-03-04T13:22:56;9.70;99.90
61912;DHT22;49973;52.084;5.412;2023-03-04T13:25:39;9.50;99.90
61912;DHT22;49973;52.084;5.412;2023-03-04T13:28:21;9.20;99.90
61912;DHT22;49973;52.084;5.412;2023-03-04T13:31:15;9.00;99.90
61912;DHT22;49973;52.084;5.412;2023-03-04T13:33:53;8.70;99.90
61912;DHT22;49973;52.084;5.412;2023-03-04T13:36:34;8.60;99.90
61912;DHT22;49973;52.084;5.412;2023-03-04T13:39:27;8.40;99.90
61912;DHT22;49973;52.084;5.412;2023-03-04T13:41:56;8.40;99.90
61912;DHT22;49973;52.084;5.412;2023-03-04T13:47:20;8.30;99.90
61912;DHT22;49973;52.084;5.412;2023-03-04T13:49:49;8.50;99.90
61912;DHT22;49973;52.084;5.412;2023-03-04T13:52:39;8.50;99.90
61912;DHT22;49973;52.084;5.412;2023-03-04T13:55:33;8.60;99.90
61912;DHT22;49973;52.084;5.412;2023-03-04T13:58:14;8.60;99.90
61912;DHT22;49973;52.084;5.412;2023-03-04T14:00:52;8.60;99.90
61912;DHT22;49973;52.084;5.412;2023-03-04T14:03:23;8.70;99.90
61912;DHT22;49973;52.084;5.412;2023-03-04T14:06:25;8.70;99.90
61912;DHT22;49973;52.084;5.412;2023-03-04T14:08:55;8.80;99.90
61912;DHT22;49973;52.084;5.412;2023-03-04T14:11:27;8.80;99.90
61912;DHT22;49973;52.084;5.412;2023-03-04T14:13:58;8.80;99.90
61912;DHT22;49973;52.084;5.412;2023-03-04T14:16:32;8.60;99.90
61912;DHT22;49973;52.084;5.412;2023-03-04T14:19:04;8.50;99.90
61912;DHT22;49973;52.084;5.412;2023-03-04T14:21:34;8.40;99.90
61912;DHT22;49973;52.084;5.412;2023-03-04T14:24:07;8.40;99.90
61912;DHT22;49973;52.084;5.412;2023-03-04T14:26:35;8.30;99.90
61912;DHT22;49973;52.084;5.412;2023-03-04T14:29:19;8.40;99.90
61912;DHT22;49973;52.084;5.412;2023-03-04T14:31:50;8.40;99.90
61912;DHT22;49973;52.084;5.412;2023-03-04T14:34:25;8.40;99.90
61912;DHT22;49973;52.084;5.412;2023-03-04T14:36:55;8.40;99.90
61912;DHT22;49973;52.084;5.412;2023-03-04T14:39:25;8.50;99.90
61912;DHT22;49973;52.084;5.412;2023-03-04T14:41:56;8.40;99.90
61912;DHT22;49973;52.084;5.412;2023-03-04T14:44:30;8.50;99.90
61912;DHT22;49973;52.084;5.412;2023-03-04T14:47:10;8.40;99.90
61912;DHT22;49973;52.084;5.412;2023-03-04T14:49:43;8.40;99.90
61912;DHT22;49973;52.084;5.412;2023-03-04T14:52:35;8.40;99.90
61912;DHT22;49973;52.084;5.412;2023-03-04T14:55:22;8.40;99.90
61912;DHT22;49973;52.084;5.412;2023-03-04T14:57:52;8.30;99.90
61912;DHT22;49973;52.084;5.412;2023-03-04T15:00:28;8.40;99.90
61912;DHT22;49973;52.084;5.412;2023-03-04T15:02:59;8.20;99.90
61912;DHT22;49973;52.084;5.412;2023-03-04T15:05:30;8.20;99.90
61912;DHT22;49973;52.084;5.412;2023-03-04T15:08:00;8.10;99.90
61912;DHT22;49973;52.084;5.412;2023-03-04T15:10:32;8.20;99.90
61912;DHT22;49973;52.084;5.412;2023-03-04T15:13:02;8.20;99.90
61912;DHT22;49973;52.084;5.412;2023-03-04T15:15:38;8.20;99.90
61912;DHT22;49973;52.084;5.412;2023-03-04T15:18:22;8.20;99.90
61912;DHT22;49973;52.084;5.412;2023-03-04T15:20:54;8.20;99.90
61912;DHT22;49973;52.084;5.412;2023-03-04T15:23:23;8.10;99.90
61912;DHT22;49973;52.084;5.412;2023-03-04T15:25:53;8.20;99.90
61912;DHT22;49973;52.084;5.412;2023-03-04T15:28:22;8.10;99.90
61912;DHT22;49973;52.084;5.412;2023-03-04T15:30:51;8.10;99.90
61912;DHT22;49973;52.084;5.412;2023-03-04T15:33:22;8.00;99.90
61912;DHT22;49973;52.084;5.412;2023-03-04T15:35:54;8.00;99.90
61912;DHT22;49973;52.084;5.412;2023-03-04T15:38:24;7.90;99.90
61912;DHT22;49973;52.084;5.412;2023-03-04T15:40:53;8.10;99.90
61912;DHT22;49973;52.084;5.412;2023-03-04T15:43:22;7.90;99.90
61912;DHT22;49973;52.084;5.412;2023-03-04T15:45:52;8.00;99.90
61912;DHT22;49973;52.084;5.412;2023-03-04T15:48:22;7.90;99.90
61912;DHT22;49973;52.084;5.412;2023-03-04T15:50:54;7.90;99.90
61912;DHT22;49973;52.084;5.412;2023-03-04T15:53:27;7.90;99.90
61912;DHT22;49973;52.084;5.412;2023-03-04T15:56:00;8.00;99.90
61912;DHT22;49973;52.084;5.412;2023-03-04T15:58:29;8.00;99.90
61912;DHT22;49973;52.084;5.412;2023-03-04T16:01:01;8.00;99.90
61912;DHT22;49973;52.084;5.412;2023-03-04T16:03:31;7.90;99.90
61912;DHT22;49973;52.084;5.412;2023-03-04T16:06:00;7.90;99.90
61912;DHT22;49973;52.084;5.412;2023-03-04T16:08:28;7.90;99.90
61912;DHT22;49973;52.084;5.412;2023-03-04T16:10:57;7.90;99.90
61912;DHT22;49973;52.084;5.412;2023-03-04T16:13:25;7.80;99.90
61912;DHT22;49973;52.084;5.412;2023-03-04T16:15:54;8.00;99.90
61912;DHT22;49973;52.084;5.412;2023-03-04T16:18:22;7.80;99.90
61912;DHT22;49973;52.084;5.412;2023-03-04T16:20:52;7.90;99.90
61912;DHT22;49973;52.084;5.412;2023-03-04T16:23:23;7.90;99.90